sensor_id;sensor_type;location;lat;lon;timestamp;temperature;humidity
11922;DHT22;6021;51.182;3.160;2023-02-26T00:01:41;1.40;99.90
11922;DHT22;6021;51.182;3.160;2023-02-26T00:04:10;1.10;99.90
11922;DHT22;6021;51.182;3.160;2023-02-26T00:06:39;1.30;99.90
11922;DHT22;6021;51.182;3.160;2023-02-26T00:09:09;1.20;99.90
11922;DHT22;6021;51.182;3.160;2023-02-26T00:11:38;1.00;99.90
11922;DHT22;6021;51.182;3.160;2023-02-26T00:14:08;1.00;99.90
11922;DHT22;6021;51.182;3.160;2023-02-26T00:16:38;1.10;99.90
11922;DHT22;6021;51.182;3.160;2023-02-26T00:19:08;1.00;99.90
11922;DHT22;6021;51.182;3.160;2023-02-26T00:21:37;1.00;99.90
11922;DHT22;6021;51.182;3.160;2023-02-26T00:24:06;1.10;99.90
11922;DHT22;6021;51.182;3.160;2023-02-26T00:26:35;0.80;99.90
11922;DHT22;6021;51.182;3.160;2023-02-26T00:29:03;1.20;99.90
11922;DHT22;6021;51.182;3.160;2023-02-26T00:31:32;0.90;99.90
11922;DHT22;6021;51.182;3.160;2023-02-26T00:34:01;0.80;99.90
11922;DHT22;6021;51.182;3.160;2023-02-26T00:37:02;1.00;99.90
11922;DHT22;6021;51.182;3.160;2023-02-26T00:42:17;0.90;99.90
11922;DHT22;6021;51.182;3.160;2023-02-26T00:44:46;0.90;99.90
11922;DHT22;6021;51.182;3.160;2023-02-26T00:47:40;1.00;99.90
11922;DHT22;6021;51.182;3.160;2023-02-26T00:50:20;1.10;99.90
11922;DHT22;6021;51.182;3.160;2023-02-26T00:53:00;1.10;99.90
11922;DHT22;6021;51.182;3.160;2023-02-26T00:55:26;1.10;99.90
11922;DHT22;6021;51.182;3.160;2023-02-26T00:57:55;1.20;99.90
11922;DHT22;6021;51.182;3.160;2023-02-26T01:00:23;1.00;99.90
11922;DHT22;6021;51.182;3.160;2023-02-26T01:02:52;1.10;99.90
11922;DHT22;6021;51.182;3.160;2023-02-26T01:05:20;1.00;99.90
11922;DHT22;6021;51.182;3.160;2023-02-26T01:07:53;1.10;99.90
11922;DHT22;6021;51.182;3.160;2023-02-26T01:10:21;1.00;99.90
11922;DHT22;6021;51.182;3.160;2023-02-26T01:12:50;1.20;99.90
11922;DHT22;6021;51.182;3.160;2023-02-26T01:15:19;1.40;99.90
11922;DHT22;6021;51.182;3.160;2023-02-26T01:20:24;1.30;99.90
11922;DHT22;6021;51.182;3.160;2023-02-26T01:23:09;1.40;99.90
11922;DHT22;6021;51.182;3.160;2023-02-26T01:25:57;1.40;99.90
11922;DHT22;6021;51.182;3.160;2023-02-26T01:28:10;1.40;99.90
11922;DHT22;6021;51.182;3.160;2023-02-26T01:30:39;1.90;99.90
11922;DHT22;6021;51.182;3.160;2023-02-26T01:33:25;1.60;99.90
11922;DHT22;6021;51.182;3.160;2023-02-26T01:36:02;1.70;99.90
11922;DHT22;6021;51.182;3.160;2023-02-26T01:38:42;1.70;99.90
11922;DHT22;6021;51.182;3.160;2023-02-26T01:41:32;1.60;99.90
11922;DHT22;6021;51.182;3.160;2023-02-26T01:47:00;1.80;99.90
11922;DHT22;6021;51.182;3.160;2023-02-26T01:49:28;1.80;99.90
11922;DHT22;6021;51.182;3.160;2023-02-26T01:52:02;1.90;99.90
11922;DHT22;6021;51.182;3.160;2023-02-26T01:54:34;2.20;99.90
11922;DHT22;6021;51.182;3.160;2023-02-26T01:57:08;1.90;99.90
11922;DHT22;6021;51.182;3.160;2023-02-26T01:59:40;1.90;99.90
11922;DHT22;6021;51.182;3.160;2023-02-26T02:02:10;2.10;99.90
11922;DHT22;6021;51.182;3.160;2023-02-26T02:04:40;2.10;99.90
11922;DHT22;6021;51.182;3.160;2023-02-26T02:07:08;2.20;99.90
11922;DHT22;6021;51.182;3.160;2023-02-26T02:09:37;2.40;99.90
11922;DHT22;6021;51.182;3.160;2023-02-26T02:23:16;2.40;99.90
11922;DHT22;6021;51.182;3.160;2023-02-26T02:32:09;2.30;99.90
11922;DHT22;6021;51.182;3.160;2023-02-26T02:37:40;2.50;99.90
11922;DHT22;6021;51.182;3.160;2023-02-26T02:40:14;2.40;99.90
11922;DHT22;6021;51.182;3.160;2023-02-26T02:42:54;2.50;99.90
11922;DHT22;6021;51.182;3.160;2023-02-26T02:48:00;2.10;99.90
11922;DHT22;6021;51.182;3.160;2023-02-26T02:50:32;2.10;99.90
11922;DHT22;6021;51.182;3.160;2023-02-26T02:53:10;2.10;99.90
11922;DHT22;6021;51.182;3.160;2023-02-26T02:55:36;2.20;99.90
11922;DHT22;6021;51.182;3.160;2023-02-26T02:58:17;2.30;99.90
11922;DHT22;6021;51.182;3.160;2023-02-26T03:00:48;2.40;99.90
11922;DHT22;6021;51.182;3.160;2023-02-26T03:06:00;2.40;99.90
11922;DHT22;6021;51.182;3.160;2023-02-26T03:08:33;2.20;99.90
11922;DHT22;6021;51.182;3.160;2023-02-26T03:11:00;2.20;99.90
11922;DHT22;6021;51.182;3.160;2023-02-26T03:13:28;2.40;99.90
11922;DHT22;6021;51.182;3.160;2023-02-26T03:16:22;2.40;99.90
11922;DHT22;6021;51.182;3.160;2023-02-26T03:22:06;2.20;99.90
11922;DHT22;6021;51.182;3.160;2023-02-26T03:24:58;2.30;99.90
11922;DHT22;6021;51.182;3.160;2023-02-26T03:27:30;2.10;99.90
11922;DHT22;6021;51.182;3.160;2023-02-26T03:30:11;2.40;99.90
11922;DHT22;6021;51.182;3.160;2023-02-26T03:35:53;2.00;99.90
11922;DHT22;6021;51.182;3.160;2023-02-26T03:38:23;2.10;99.90
11922;DHT22;6021;51.182;3.160;2023-02-26T03:41:03;2.10;99.90
11922;DHT22;6021;51.182;3.160;2023-02-26T03:43:41;2.10;99.90
11922;DHT22;6021;51.182;3.160;2023-02-26T03:46:08;1.90;99.90
11922;DHT22;6021;51.182;3.160;2023-02-26T03:48:37;2.10;99.90
11922;DHT22;6021;51.182;3.160;2023-02-26T03:51:10;2.20;99.90
11922;DHT22;6021;51.182;3.160;2023-02-26T03:56:15;2.40;99.90
11922;DHT22;6021;51.182;3.160;2023-02-26T03:58:43;2.50;99.90
11922;DHT22;6021;51.182;3.160;2023-02-26T04:01:18;2.50;99.90
11922;DHT22;6021;51.182;3.160;2023-02-26T04:03:49;3.00;99.90
11922;DHT22;6021;51.182;3.160;2023-02-26T04:06:17;2.90;99.90
11922;DHT22;6021;51.182;3.160;2023-02-26T04:08:46;3.00;99.90
11922;DHT22;6021;51.182;3.160;2023-02-26T04:11:17;3.00;99.90
11922;DHT22;6021;51.182;3.160;2023-02-26T04:13:47;2.70;99.90
11922;DHT22;6021;51.182;3.160;2023-02-26T04:16:18;2.70;99.90
11922;DHT22;6021;51.182;3.160;2023-02-26T04:18:46;2.90;99.90
11922;DHT22;6021;51.182;3.160;2023-02-26T04:21:18;3.20;99.90
11922;DHT22;6021;51.182;3.160;2023-02-26T04:23:46;2.70;97.50
11922;DHT22;6021;51.182;3.160;2023-02-26T04:26:14;2.80;72.10
11922;DHT22;6021;51.182;3.160;2023-02-26T04:28:44;2.90;36.70
11922;DHT22;6021;51.182;3.160;2023-02-26T04:31:13;2.70;40.90
11922;DHT22;6021;51.182;3.160;2023-02-26T04:33:42;2.70;47.00
11922;DHT22;6021;51.182;3.160;2023-02-26T04:36:10;2.70;26.60
11922;DHT22;6021;51.182;3.160;2023-02-26T04:38:38;2.90;20.10
11922;DHT22;6021;51.182;3.160;2023-02-26T04:41:07;3.00;11.50
11922;DHT22;6021;51.182;3.160;2023-02-26T04:43:35;2.50;1.00
11922;DHT22;6021;51.182;3.160;2023-02-26T04:46:04;2.50;1.00
11922;DHT22;6021;51.182;3.160;2023-02-26T04:48:32;2.50;1.50
11922;DHT22;6021;51.182;3.160;2023-02-26T04:51:01;2.50;1.00
11922;DHT22;6021;51.182;3.160;2023-02-26T04:53:29;2.50;1.00
11922;DHT22;6021;51.182;3.160;2023-02-26T04:55:58;2.20;1.00
11922;DHT22;6021;51.182;3.160;2023-02-26T04:58:26;2.30;1.00
11922;DHT22;6021;51.182;3.160;2023-02-26T05:00:56;2.20;1.00
11922;DHT22;6021;51.182;3.160;2023-02-26T05:03:24;2.10;1.00
11922;DHT22;6021;51.182;3.160;2023-02-26T05:05:53;2.00;1.00
11922;DHT22;6021;51.182;3.160;2023-02-26T05:08:21;1.90;1.00
11922;DHT22;6021;51.182;3.160;2023-02-26T05:10:51;2.00;1.00
11922;DHT22;6021;51.182;3.160;2023-02-26T05:13:19;1.80;1.00
11922;DHT22;6021;51.182;3.160;2023-02-26T05:15:47;2.00;1.00
11922;DHT22;6021;51.182;3.160;2023-02-26T05:18:16;1.80;1.00
11922;DHT22;6021;51.182;3.160;2023-02-26T05:20:44;1.60;1.00
11922;DHT22;6021;51.182;3.160;2023-02-26T05:23:13;1.80;1.00
11922;DHT22;6021;51.182;3.160;2023-02-26T05:25:41;1.80;1.00
11922;DHT22;6021;51.182;3.160;2023-02-26T05:28:09;1.80;1.00
11922;DHT22;6021;51.182;3.160;2023-02-26T05:30:38;2.00;1.00
11922;DHT22;6021;51.182;3.160;2023-02-26T05:33:06;2.00;1.00
11922;DHT22;6021;51.182;3.160;2023-02-26T05:35:35;1.70;1.00
11922;DHT22;6021;51.182;3.160;2023-02-26T05:38:03;1.70;1.00
11922;DHT22;6021;51.182;3.160;2023-02-26T05:40:32;1.60;1.00
11922;DHT22;6021;51.182;3.160;2023-02-26T05:43:00;1.70;1.00
11922;DHT22;6021;51.182;3.160;2023-02-26T05:45:29;1.60;1.00
11922;DHT22;6021;51.182;3.160;2023-02-26T05:47:57;1.60;1.00
11922;DHT22;6021;51.182;3.160;2023-02-26T05:50:26;1.70;1.00
11922;DHT22;6021;51.182;3.160;2023-02-26T05:52:54;1.70;1.00
11922;DHT22;6021;51.182;3.160;2023-02-26T05:55:22;1.60;1.00
11922;DHT22;6021;51.182;3.160;2023-02-26T05:57:51;1.80;1.00
11922;DHT22;6021;51.182;3.160;2023-02-26T06:00:19;1.90;1.00
11922;DHT22;6021;51.182;3.160;2023-02-26T06:02:48;1.80;1.00
11922;DHT22;6021;51.182;3.160;2023-02-26T06:05:16;1.80;1.00
11922;DHT22;6021;51.182;3.160;2023-02-26T06:07:45;1.80;1.00
11922;DHT22;6021;51.182;3.160;2023-02-26T06:10:13;1.80;1.00
11922;DHT22;6021;51.182;3.160;2023-02-26T06:12:42;2.00;1.00
11922;DHT22;6021;51.182;3.160;2023-02-26T06:15:11;1.90;1.00
11922;DHT22;6021;51.182;3.160;2023-02-26T06:17:39;1.60;1.00
11922;DHT22;6021;51.182;3.160;2023-02-26T06:20:09;1.70;1.00
11922;DHT22;6021;51.182;3.160;2023-02-26T06:22:39;1.70;1.00
11922;DHT22;6021;51.182;3.160;2023-02-26T06:25:08;1.70;1.00
11922;DHT22;6021;51.182;3.160;2023-02-26T06:27:36;1.60;1.00
11922;DHT22;6021;51.182;3.160;2023-02-26T06:30:06;1.60;1.00
11922;DHT22;6021;51.182;3.160;2023-02-26T06:32:34;1.70;1.00
11922;DHT22;6021;51.182;3.160;2023-02-26T06:35:03;1.60;1.00
11922;DHT22;6021;51.182;3.160;2023-02-26T06:37:32;1.90;1.00
11922;DHT22;6021;51.182;3.160;2023-02-26T06:40:01;1.90;1.00
11922;DHT22;6021;51.182;3.160;2023-02-26T06:42:30;2.00;1.00
11922;DHT22;6021;51.182;3.160;2023-02-26T06:44:58;1.70;1.00
11922;DHT22;6021;51.182;3.160;2023-02-26T06:47:27;1.70;1.00
11922;DHT22;6021;51.182;3.160;2023-02-26T06:49:55;1.80;1.00
11922;DHT22;6021;51.182;3.160;2023-02-26T06:52:24;1.80;1.00
11922;DHT22;6021;51.182;3.160;2023-02-26T06:54:52;1.80;1.00
11922;DHT22;6021;51.182;3.160;2023-02-26T06:57:22;1.80;1.00
11922;DHT22;6021;51.182;3.160;2023-02-26T06:59:51;1.70;1.00
11922;DHT22;6021;51.182;3.160;2023-02-26T07:02:22;1.70;1.00
11922;DHT22;6021;51.182;3.160;2023-02-26T07:04:51;1.80;1.00
11922;DHT22;6021;51.182;3.160;2023-02-26T07:07:22;1.80;1.00
11922;DHT22;6021;51.182;3.160;2023-02-26T07:09:50;1.90;1.00
11922;DHT22;6021;51.182;3.160;2023-02-26T07:12:19;2.10;1.00
11922;DHT22;6021;51.182;3.160;2023-02-26T07:14:47;2.00;1.00
11922;DHT22;6021;51.182;3.160;2023-02-26T07:17:16;2.00;1.00
11922;DHT22;6021;51.182;3.160;2023-02-26T07:19:48;2.10;1.00
11922;DHT22;6021;51.182;3.160;2023-02-26T07:22:18;2.00;1.00
11922;DHT22;6021;51.182;3.160;2023-02-26T07:24:47;2.20;1.00
11922;DHT22;6021;51.182;3.160;2023-02-26T07:27:16;2.20;1.00
11922;DHT22;6021;51.182;3.160;2023-02-26T07:29:46;2.30;1.00
11922;DHT22;6021;51.182;3.160;2023-02-26T07:32:16;2.40;1.00
11922;DHT22;6021;51.182;3.160;2023-02-26T07:34:44;2.30;1.00
11922;DHT22;6021;51.182;3.160;2023-02-26T07:37:13;2.20;1.00
11922;DHT22;6021;51.182;3.160;2023-02-26T07:39:41;2.60;1.00
11922;DHT22;6021;51.182;3.160;2023-02-26T07:42:10;2.50;1.00
11922;DHT22;6021;51.182;3.160;2023-02-26T07:44:38;2.50;1.00
11922;DHT22;6021;51.182;3.160;2023-02-26T07:47:07;2.30;1.00
11922;DHT22;6021;51.182;3.160;2023-02-26T07:49:36;2.30;1.00
11922;DHT22;6021;51.182;3.160;2023-02-26T07:52:05;2.30;1.00
11922;DHT22;6021;51.182;3.160;2023-02-26T07:54:35;2.50;1.00
11922;DHT22;6021;51.182;3.160;2023-02-26T07:57:04;2.30;1.00
11922;DHT22;6021;51.182;3.160;2023-02-26T07:59:32;2.30;1.00
11922;DHT22;6021;51.182;3.160;2023-02-26T08:02:01;2.30;1.00
11922;DHT22;6021;51.182;3.160;2023-02-26T08:04:29;2.30;1.00
11922;DHT22;6021;51.182;3.160;2023-02-26T08:06:59;2.50;1.00
11922;DHT22;6021;51.182;3.160;2023-02-26T08:09:28;2.30;1.00
11922;DHT22;6021;51.182;3.160;2023-02-26T08:11:57;2.50;1.00
11922;DHT22;6021;51.182;3.160;2023-02-26T08:14:25;2.60;1.00
11922;DHT22;6021;51.182;3.160;2023-02-26T08:16:54;2.90;1.00
11922;DHT22;6021;51.182;3.160;2023-02-26T08:19:22;2.50;1.00
11922;DHT22;6021;51.182;3.160;2023-02-26T08:21:51;2.80;1.00
11922;DHT22;6021;51.182;3.160;2023-02-26T08:24:21;3.10;1.00
11922;DHT22;6021;51.182;3.160;2023-02-26T08:26:49;3.70;1.00
11922;DHT22;6021;51.182;3.160;2023-02-26T08:29:18;3.90;1.00
11922;DHT22;6021;51.182;3.160;2023-02-26T08:31:47;3.90;1.00
11922;DHT22;6021;51.182;3.160;2023-02-26T08:34:16;3.50;1.00
11922;DHT22;6021;51.182;3.160;2023-02-26T08:36:44;3.50;1.00
11922;DHT22;6021;51.182;3.160;2023-02-26T08:39:13;3.50;1.00
11922;DHT22;6021;51.182;3.160;2023-02-26T08:41:41;3.50;1.00
11922;DHT22;6021;51.182;3.160;2023-02-26T08:44:09;3.70;1.00
11922;DHT22;6021;51.182;3.160;2023-02-26T08:46:38;4.00;1.00
11922;DHT22;6021;51.182;3.160;2023-02-26T08:49:08;4.30;1.00
11922;DHT22;6021;51.182;3.160;2023-02-26T08:51:36;4.60;1.00
11922;DHT22;6021;51.182;3.160;2023-02-26T08:54:05;4.30;1.00
11922;DHT22;6021;51.182;3.160;2023-02-26T08:56:33;4.20;1.00
11922;DHT22;6021;51.182;3.160;2023-02-26T08:59:02;4.10;1.00
11922;DHT22;6021;51.182;3.160;2023-02-26T09:01:30;4.20;1.00
11922;DHT22;6021;51.182;3.160;2023-02-26T09:03:58;4.00;1.00
11922;DHT22;6021;51.182;3.160;2023-02-26T09:06:27;3.90;1.00
11922;DHT22;6021;51.182;3.160;2023-02-26T09:08:55;3.90;1.00
11922;DHT22;6021;51.182;3.160;2023-02-26T09:11:24;3.70;1.00
11922;DHT22;6021;51.182;3.160;2023-02-26T09:13:52;3.60;1.00
11922;DHT22;6021;51.182;3.160;2023-02-26T09:16:21;3.70;1.00
11922;DHT22;6021;51.182;3.160;2023-02-26T09:18:49;3.70;1.00
11922;DHT22;6021;51.182;3.160;2023-02-26T09:21:17;3.80;1.00
11922;DHT22;6021;51.182;3.160;2023-02-26T09:23:46;3.60;1.00
11922;DHT22;6021;51.182;3.160;2023-02-26T09:26:14;3.90;1.00
11922;DHT22;6021;51.182;3.160;2023-02-26T09:28:43;4.20;1.00
11922;DHT22;6021;51.182;3.160;2023-02-26T09:31:11;4.20;1.00
11922;DHT22;6021;51.182;3.160;2023-02-26T09:33:39;3.90;1.00
11922;DHT22;6021;51.182;3.160;2023-02-26T09:36:08;4.20;1.00
11922;DHT22;6021;51.182;3.160;2023-02-26T09:38:37;4.60;1.00
11922;DHT22;6021;51.182;3.160;2023-02-26T09:41:17;4.60;1.00
11922;DHT22;6021;51.182;3.160;2023-02-26T09:47:17;4.60;1.00
11922;DHT22;6021;51.182;3.160;2023-02-26T09:49:55;4.90;1.00
11922;DHT22;6021;51.182;3.160;2023-02-26T09:55:42;5.70;1.00
11922;DHT22;6021;51.182;3.160;2023-02-26T09:58:26;5.70;1.00
11922;DHT22;6021;51.182;3.160;2023-02-26T10:03:56;6.00;1.00
11922;DHT22;6021;51.182;3.160;2023-02-26T10:06:29;5.90;1.00
11922;DHT22;6021;51.182;3.160;2023-02-26T10:12:11;6.10;1.00
11922;DHT22;6021;51.182;3.160;2023-02-26T10:14:25;5.90;1.00
11922;DHT22;6021;51.182;3.160;2023-02-26T10:17:00;5.80;1.00
11922;DHT22;6021;51.182;3.160;2023-02-26T10:19:35;5.70;1.00
11922;DHT22;6021;51.182;3.160;2023-02-26T10:28:00;5.90;1.00
11922;DHT22;6021;51.182;3.160;2023-02-26T10:30:43;5.70;1.00
11922;DHT22;6021;51.182;3.160;2023-02-26T10:33:23;5.40;1.00
11922;DHT22;6021;51.182;3.160;2023-02-26T10:35:57;5.40;1.00
11922;DHT22;6021;51.182;3.160;2023-02-26T10:38:30;5.80;1.00
11922;DHT22;6021;51.182;3.160;2023-02-26T10:41:04;5.90;1.00
11922;DHT22;6021;51.182;3.160;2023-02-26T10:43:41;5.90;1.00
11922;DHT22;6021;51.182;3.160;2023-02-26T10:52:14;6.70;1.00
11922;DHT22;6021;51.182;3.160;2023-02-26T10:54:59;6.90;1.00
11922;DHT22;6021;51.182;3.160;2023-02-26T10:57:30;7.10;1.00
11922;DHT22;6021;51.182;3.160;2023-02-26T11:00:04;6.90;1.00
11922;DHT22;6021;51.182;3.160;2023-02-26T11:02:38;6.70;1.00
11922;DHT22;6021;51.182;3.160;2023-02-26T11:05:16;6.20;1.00
11922;DHT22;6021;51.182;3.160;2023-02-26T11:07:51;6.30;1.00
11922;DHT22;6021;51.182;3.160;2023-02-26T11:10:29;6.20;1.00
11922;DHT22;6021;51.182;3.160;2023-02-26T11:12:58;6.40;1.00
11922;DHT22;6021;51.182;3.160;2023-02-26T11:15:37;6.40;1.00
11922;DHT22;6021;51.182;3.160;2023-02-26T11:18:07;6.50;1.00
11922;DHT22;6021;51.182;3.160;2023-02-26T11:20:40;6.60;1.00
11922;DHT22;6021;51.182;3.160;2023-02-26T11:23:15;6.80;1.00
11922;DHT22;6021;51.182;3.160;2023-02-26T11:25:44;6.60;1.00
11922;DHT22;6021;51.182;3.160;2023-02-26T11:28:23;6.80;1.00
11922;DHT22;6021;51.182;3.160;2023-02-26T11:30:53;6.50;1.00
11922;DHT22;6021;51.182;3.160;2023-02-26T11:33:33;6.40;1.00
11922;DHT22;6021;51.182;3.160;2023-02-26T11:35:59;6.20;1.00
11922;DHT22;6021;51.182;3.160;2023-02-26T11:38:30;6.10;1.00
11922;DHT22;6021;51.182;3.160;2023-02-26T11:41:06;6.00;1.00
11922;DHT22;6021;51.182;3.160;2023-02-26T11:43:46;5.80;1.00
11922;DHT22;6021;51.182;3.160;2023-02-26T11:46:09;6.00;1.00
11922;DHT22;6021;51.182;3.160;2023-02-26T11:48:48;5.90;1.00
11922;DHT22;6021;51.182;3.160;2023-02-26T11:51:29;5.90;1.00
11922;DHT22;6021;51.182;3.160;2023-02-26T11:54:01;5.70;1.00
11922;DHT22;6021;51.182;3.160;2023-02-26T11:59:26;5.90;1.00
11922;DHT22;6021;51.182;3.160;2023-02-26T12:02:13;6.20;1.00
11922;DHT22;6021;51.182;3.160;2023-02-26T12:04:54;6.40;1.00
11922;DHT22;6021;51.182;3.160;2023-02-26T12:09:58;6.20;1.00
11922;DHT22;6021;51.182;3.160;2023-02-26T12:15:52;6.10;1.00
11922;DHT22;6021;51.182;3.160;2023-02-26T12:19:00;6.20;1.00
11922;DHT22;6021;51.182;3.160;2023-02-26T12:24:29;6.40;1.00
11922;DHT22;6021;51.182;3.160;2023-02-26T12:27:16;6.00;1.00
11922;DHT22;6021;51.182;3.160;2023-02-26T12:30:04;5.90;1.00
11922;DHT22;6021;51.182;3.160;2023-02-26T12:35:24;6.20;1.00
11922;DHT22;6021;51.182;3.160;2023-02-26T12:38:24;6.30;1.00
11922;DHT22;6021;51.182;3.160;2023-02-26T14:08:18;5.70;1.00
11922;DHT22;6021;51.182;3.160;2023-02-26T14:10:45;5.80;1.00
11922;DHT22;6021;51.182;3.160;2023-02-26T14:13:19;5.80;1.00
11922;DHT22;6021;51.182;3.160;2023-02-26T14:16:11;5.80;1.00
11922;DHT22;6021;51.182;3.160;2023-02-26T14:18:48;5.90;1.00
11922;DHT22;6021;51.182;3.160;2023-02-26T14:21:39;5.80;1.00
11922;DHT22;6021;51.182;3.160;2023-02-26T14:26:46;5.80;1.00
11922;DHT22;6021;51.182;3.160;2023-02-26T14:29:25;5.80;1.00
11922;DHT22;6021;51.182;3.160;2023-02-26T14:32:13;5.80;1.00
11922;DHT22;6021;51.182;3.160;2023-02-26T14:34:50;5.90;1.00
11922;DHT22;6021;51.182;3.160;2023-02-26T14:37:22;5.90;1.00
11922;DHT22;6021;51.182;3.160;2023-02-26T14:42:53;5.90;1.00
11922;DHT22;6021;51.182;3.160;2023-02-26T14:45:31;5.80;1.00
11922;DHT22;6021;51.182;3.160;2023-02-26T14:48:05;6.00;1.00
11922;DHT22;6021;51.182;3.160;2023-02-26T14:58:50;6.40;1.00
11922;DHT22;6021;51.182;3.160;2023-02-26T15:01:28;6.40;1.00
11922;DHT22;6021;51.182;3.160;2023-02-26T15:09:23;6.20;1.00
11922;DHT22;6021;51.182;3.160;2023-02-26T15:12:01;6.10;1.00
11922;DHT22;6021;51.182;3.160;2023-02-26T15:14:46;6.20;1.00
11922;DHT22;6021;51.182;3.160;2023-02-26T15:25:38;5.80;1.00
11922;DHT22;6021;51.182;3.160;2023-02-26T15:28:21;5.90;1.00
11922;DHT22;6021;51.182;3.160;2023-02-26T15:30:48;5.80;1.00
11922;DHT22;6021;51.182;3.160;2023-02-26T15:33:19;5.90;1.00
11922;DHT22;6021;51.182;3.160;2023-02-26T15:35:49;5.90;1.00
11922;DHT22;6021;51.182;3.160;2023-02-26T15:38:18;5.80;1.00
11922;DHT22;6021;51.182;3.160;2023-02-26T15:40:48;5.90;1.00
11922;DHT22;6021;51.182;3.160;2023-02-26T15:43:22;5.80;1.00
11922;DHT22;6021;51.182;3.160;2023-02-26T15:46:10;5.80;1.00
11922;DHT22;6021;51.182;3.160;2023-02-26T15:48:40;5.90;1.00
11922;DHT22;6021;51.182;3.160;2023-02-26T15:51:11;5.80;1.00
11922;DHT22;6021;51.182;3.160;2023-02-26T15:53:46;5.90;1.00
11922;DHT22;6021;51.182;3.160;2023-02-26T15:56:18;5.80;1.00
11922;DHT22;6021;51.182;3.160;2023-02-26T16:01:24;5.80;1.00
11922;DHT22;6021;51.182;3.160;2023-02-26T16:03:59;5.90;1.00
11922;DHT22;6021;51.182;3.160;2023-02-26T16:06:34;5.90;1.00
11922;DHT22;6021;51.182;3.160;2023-02-26T16:09:04;5.60;1.00
11922;DHT22;6021;51.182;3.160;2023-02-26T16:11:35;5.70;1.00
11922;DHT22;6021;51.182;3.160;2023-02-26T16:14:06;5.70;1.00
11922;DHT22;6021;51.182;3.160;2023-02-26T16:16:47;5.60;1.00
11922;DHT22;6021;51.182;3.160;2023-02-26T16:19:23;5.50;1.00
11922;DHT22;6021;51.182;3.160;2023-02-26T16:21:51;5.60;1.00
11922;DHT22;6021;51.182;3.160;2023-02-26T16:24:22;5.80;1.00
11922;DHT22;6021;51.182;3.160;2023-02-26T16:26:55;5.60;1.00
11922;DHT22;6021;51.182;3.160;2023-02-26T16:29:29;5.70;1.00
11922;DHT22;6021;51.182;3.160;2023-02-26T16:32:01;5.70;1.00
11922;DHT22;6021;51.182;3.160;2023-02-26T16:34:51;5.60;1.00
11922;DHT22;6021;51.182;3.160;2023-02-26T16:48:20;5.30;1.00
11922;DHT22;6021;51.182;3.160;2023-02-26T16:51:08;5.40;1.00
11922;DHT22;6021;51.182;3.160;2023-02-26T16:53:23;5.40;1.00
11922;DHT22;6021;51.182;3.160;2023-02-26T16:55:54;5.50;1.00
11922;DHT22;6021;51.182;3.160;2023-02-26T16:58:23;5.30;1.00
11922;DHT22;6021;51.182;3.160;2023-02-26T17:01:07;5.30;1.00
11922;DHT22;6021;51.182;3.160;2023-02-26T17:04:03;5.10;1.00
11922;DHT22;6021;51.182;3.160;2023-02-26T17:06:28;5.00;1.00
11922;DHT22;6021;51.182;3.160;2023-02-26T17:09:02;5.10;1.00
11922;DHT22;6021;51.182;3.160;2023-02-26T17:11:37;5.10;1.00
11922;DHT22;6021;51.182;3.160;2023-02-26T17:14:20;4.90;1.00
11922;DHT22;6021;51.182;3.160;2023-02-26T17:16:51;4.80;1.00
11922;DHT22;6021;51.182;3.160;2023-02-26T17:19:19;4.90;1.00
11922;DHT22;6021;51.182;3.160;2023-02-26T17:21:53;4.60;1.00
11922;DHT22;6021;51.182;3.160;2023-02-26T17:24:31;4.80;1.00
11922;DHT22;6021;51.182;3.160;2023-02-26T17:26:55;4.70;1.00
11922;DHT22;6021;51.182;3.160;2023-02-26T17:29:38;4.50;1.00
11922;DHT22;6021;51.182;3.160;2023-02-26T17:32:11;4.60;1.00
11922;DHT22;6021;51.182;3.160;2023-02-26T17:34:38;4.60;1.00
11922;DHT22;6021;51.182;3.160;2023-02-26T17:37:11;4.80;1.00
11922;DHT22;6021;51.182;3.160;2023-02-26T17:39:40;4.60;1.00
11922;DHT22;6021;51.182;3.160;2023-02-26T17:42:17;4.50;1.00
11922;DHT22;6021;51.182;3.160;2023-02-26T17:44:48;4.70;1.00
11922;DHT22;6021;51.182;3.160;2023-02-26T17:47:18;4.50;1.00
11922;DHT22;6021;51.182;3.160;2023-02-26T17:49:47;4.50;1.00
11922;DHT22;6021;51.182;3.160;2023-02-26T17:52:16;4.70;1.00
11922;DHT22;6021;51.182;3.160;2023-02-26T17:54:45;4.50;1.00
11922;DHT22;6021;51.182;3.160;2023-02-26T17:57:20;4.40;1.00
11922;DHT22;6021;51.182;3.160;2023-02-26T17:59:49;4.50;1.00
11922;DHT22;6021;51.182;3.160;2023-02-26T18:02:23;4.40;1.00
11922;DHT22;6021;51.182;3.160;2023-02-26T18:04:53;4.40;1.00
11922;DHT22;6021;51.182;3.160;2023-02-26T18:07:22;4.60;1.00
11922;DHT22;6021;51.182;3.160;2023-02-26T18:09:51;4.40;1.00
11922;DHT22;6021;51.182;3.160;2023-02-26T18:12:20;4.30;1.00
11922;DHT22;6021;51.182;3.160;2023-02-26T18:14:49;4.60;1.00
11922;DHT22;6021;51.182;3.160;2023-02-26T18:17:23;4.40;1.00
11922;DHT22;6021;51.182;3.160;2023-02-26T18:19:52;4.50;1.00
11922;DHT22;6021;51.182;3.160;2023-02-26T18:22:21;4.50;1.00
11922;DHT22;6021;51.182;3.160;2023-02-26T18:24:53;4.60;1.00
11922;DHT22;6021;51.182;3.160;2023-02-26T18:27:23;4.70;1.00
11922;DHT22;6021;51.182;3.160;2023-02-26T18:29:52;4.60;1.00
11922;DHT22;6021;51.182;3.160;2023-02-26T18:32:23;4.90;1.00
11922;DHT22;6021;51.182;3.160;2023-02-26T18:34:51;4.60;1.00
11922;DHT22;6021;51.182;3.160;2023-02-26T18:37:23;4.60;1.00
11922;DHT22;6021;51.182;3.160;2023-02-26T18:39:52;4.60;1.00
11922;DHT22;6021;51.182;3.160;2023-02-26T18:42:24;4.80;1.00
11922;DHT22;6021;51.182;3.160;2023-02-26T18:44:53;4.60;1.00
11922;DHT22;6021;51.182;3.160;2023-02-26T18:47:22;4.60;1.00
11922;DHT22;6021;51.182;3.160;2023-02-26T18:49:51;4.70;1.00
11922;DHT22;6021;51.182;3.160;2023-02-26T18:52:19;4.60;1.00
11922;DHT22;6021;51.182;3.160;2023-02-26T18:54:47;4.60;1.00
11922;DHT22;6021;51.182;3.160;2023-02-26T18:57:16;4.60;1.00
11922;DHT22;6021;51.182;3.160;2023-02-26T18:59:44;4.60;1.00
11922;DHT22;6021;51.182;3.160;2023-02-26T19:02:12;4.50;1.00
11922;DHT22;6021;51.182;3.160;2023-02-26T19:04:41;4.20;1.00
11922;DHT22;6021;51.182;3.160;2023-02-26T19:07:10;4.30;1.00
11922;DHT22;6021;51.182;3.160;2023-02-26T19:09:38;4.10;1.00
11922;DHT22;6021;51.182;3.160;2023-02-26T19:12:07;4.40;1.00
11922;DHT22;6021;51.182;3.160;2023-02-26T19:14:35;4.40;1.00
11922;DHT22;6021;51.182;3.160;2023-02-26T19:17:04;4.10;1.00
11922;DHT22;6021;51.182;3.160;2023-02-26T19:19:32;4.10;1.00
11922;DHT22;6021;51.182;3.160;2023-02-26T19:22:01;4.40;1.00
11922;DHT22;6021;51.182;3.160;2023-02-26T19:24:29;4.40;1.00
11922;DHT22;6021;51.182;3.160;2023-02-26T19:26:57;4.40;1.00
11922;DHT22;6021;51.182;3.160;2023-02-26T19:29:26;4.40;1.00
11922;DHT22;6021;51.182;3.160;2023-02-26T19:31:54;4.10;1.00
11922;DHT22;6021;51.182;3.160;2023-02-26T19:34:22;4.40;1.00
11922;DHT22;6021;51.182;3.160;2023-02-26T19:36:51;4.40;1.00
11922;DHT22;6021;51.182;3.160;2023-02-26T19:39:19;4.40;1.00
11922;DHT22;6021;51.182;3.160;2023-02-26T19:41:48;4.00;1.00
11922;DHT22;6021;51.182;3.160;2023-02-26T19:44:20;4.00;1.00
11922;DHT22;6021;51.182;3.160;2023-02-26T19:46:49;3.80;1.00
11922;DHT22;6021;51.182;3.160;2023-02-26T19:49:17;3.80;1.00
11922;DHT22;6021;51.182;3.160;2023-02-26T19:51:46;4.00;1.00
11922;DHT22;6021;51.182;3.160;2023-02-26T19:54:15;4.10;1.00
11922;DHT22;6021;51.182;3.160;2023-02-26T19:56:44;4.00;1.00
11922;DHT22;6021;51.182;3.160;2023-02-26T19:59:12;4.00;1.00
11922;DHT22;6021;51.182;3.160;2023-02-26T20:01:41;4.10;1.00
11922;DHT22;6021;51.182;3.160;2023-02-26T20:04:10;3.90;1.00
11922;DHT22;6021;51.182;3.160;2023-02-26T20:06:38;3.70;1.00
11922;DHT22;6021;51.182;3.160;2023-02-26T20:09:06;3.70;1.00
11922;DHT22;6021;51.182;3.160;2023-02-26T20:11:36;3.90;1.00
11922;DHT22;6021;51.182;3.160;2023-02-26T20:14:05;3.80;1.00